createdAt,value
2016-07-29T00:00:09.686Z,0
2016-07-29T00:01:09.362Z,0
2016-07-29T00:02:09.392Z,0
2016-07-29T00:03:09.433Z,0
2016-07-29T00:04:08.781Z,0
2016-07-29T00:05:09.070Z,0
2016-07-29T00:06:09.584Z,0
2016-07-29T00:07:08.947Z,0
2016-07-29T00:08:09.889Z,0
2016-07-29T00:09:09.715Z,0
2016-07-29T00:10:09.790Z,0
2016-07-29T00:11:09.820Z,0
2016-07-29T00:12:09.848Z,0
2016-07-29T00:13:09.912Z,0
2016-07-29T00:14:09.961Z,0
2016-07-29T00:15:10.233Z,0
2016-07-29T00:16:10.076Z,0
2016-07-29T00:17:10.108Z,0
2016-07-29T00:18:10.141Z,0
2016-07-29T00:19:10.211Z,0
2016-07-29T00:20:10.377Z,0
2016-07-29T00:21:10.265Z,0
2016-07-29T00:22:10.340Z,0
2016-07-29T00:23:10.385Z,0
2016-07-29T00:24:09.730Z,0
2016-07-29T00:25:10.558Z,0
2016-07-29T00:26:10.524Z,0
2016-07-29T00:27:10.570Z,0
2016-07-29T00:28:10.624Z,0
2016-07-29T00:29:10.665Z,0
2016-07-29T00:30:11.866Z,0
2016-07-29T00:31:10.751Z,0
2016-07-29T00:33:10.825Z,0
2016-07-29T00:34:10.900Z,0
2016-07-29T00:35:11.208Z,0
2016-07-29T00:36:10.984Z,0
2016-07-29T00:37:11.073Z,0
2016-07-29T00:38:11.083Z,0
2016-07-29T00:39:11.134Z,0
2016-07-29T00:40:11.361Z,0
2016-07-29T00:41:11.218Z,0
2016-07-29T00:42:11.271Z,0
2016-07-29T00:43:11.342Z,0
2016-07-29T00:44:10.660Z,0
2016-07-29T00:45:11.438Z,0
2016-07-29T00:46:11.453Z,0
2016-07-29T00:47:11.486Z,0
2016-07-29T00:48:11.549Z,0
2016-07-29T00:49:11.599Z,0
2016-07-29T00:50:11.756Z,0
2016-07-29T00:51:11.692Z,0
2016-07-29T00:52:11.710Z,0
2016-07-29T00:53:11.772Z,0
2016-07-29T00:54:11.115Z,0
2016-07-29T00:55:11.589Z,0
2016-07-29T00:56:11.925Z,0
2016-07-29T00:57:11.270Z,0
2016-07-29T00:58:12.026Z,0
2016-07-29T00:59:12.075Z,0
2016-07-29T01:00:12.298Z,0
2016-07-29T01:01:12.169Z,0
2016-07-29T01:02:11.732Z,0
2016-07-29T01:03:12.276Z,0
2016-07-29T01:04:12.298Z,0
2016-07-29T01:05:12.608Z,0
2016-07-29T01:06:12.401Z,0
2016-07-29T01:07:11.750Z,0
2016-07-29T01:08:12.524Z,0
2016-07-29T01:09:11.836Z,0
2016-07-29T01:10:12.595Z,0
2016-07-29T01:11:12.651Z,0
2016-07-29T01:12:12.706Z,0
2016-07-29T01:13:12.021Z,0
2016-07-29T01:14:12.783Z,0
2016-07-29T01:15:12.115Z,0
2016-07-29T01:16:12.870Z,0
2016-07-29T01:17:12.439Z,0
2016-07-29T01:18:12.961Z,0
2016-07-29T01:19:13.031Z,0
2016-07-29T01:20:13.051Z,0
2016-07-29T01:21:12.416Z,0
2016-07-29T01:22:13.155Z,0
2016-07-29T01:23:12.513Z,0
2016-07-29T01:24:12.566Z,0
2016-07-29T01:25:12.594Z,0
2016-07-29T01:26:13.316Z,0
2016-07-29T01:27:12.685Z,0
2016-07-29T01:28:13.430Z,0
2016-07-29T01:29:13.475Z,0
2016-07-29T01:30:13.554Z,0
2016-07-29T01:31:13.547Z,0
2016-07-29T01:33:13.667Z,0
2016-07-29T01:34:13.719Z,0
2016-07-29T01:35:13.755Z,0
2016-07-29T01:36:13.114Z,0
2016-07-29T01:37:13.855Z,0
2016-07-29T01:38:13.913Z,0
2016-07-29T01:39:13.247Z,0
2016-07-29T01:40:13.277Z,0
2016-07-29T01:41:13.341Z,0
2016-07-29T01:42:13.381Z,0
2016-07-29T01:43:14.132Z,0
2016-07-29T01:44:13.455Z,0
2016-07-29T01:45:14.227Z,0
2016-07-29T01:46:13.576Z,0
2016-07-29T01:48:14.363Z,0
2016-07-29T01:49:13.714Z,0
2016-07-29T01:50:13.746Z,0
2016-07-29T01:51:28.734Z,0
2016-07-29T01:52:14.604Z,0
2016-07-29T01:53:14.619Z,0
2016-07-29T01:54:13.956Z,0
2016-07-29T01:55:14.700Z,0
2016-07-29T01:56:14.715Z,0
2016-07-29T01:57:14.087Z,0
2016-07-29T01:58:14.124Z,0
2016-07-29T01:59:14.879Z,0
2016-07-29T02:00:14.952Z,0
2016-07-29T02:01:14.301Z,0
2016-07-29T02:02:14.326Z,0
2016-07-29T02:03:15.083Z,0
2016-07-29T02:04:14.428Z,0
2016-07-29T02:05:14.481Z,0
2016-07-29T02:06:15.208Z,0
2016-07-29T02:07:14.557Z,0
2016-07-29T02:08:15.319Z,0
2016-07-29T02:09:14.636Z,0
2016-07-29T02:10:15.397Z,0
2016-07-29T02:11:15.475Z,0
2016-07-29T02:12:15.506Z,0
2016-07-29T02:13:15.521Z,0
2016-07-29T02:14:14.875Z,0
2016-07-29T02:15:14.920Z,0
2016-07-29T02:16:14.990Z,0
2016-07-29T02:17:15.749Z,0
2016-07-29T02:18:15.073Z,0
2016-07-29T02:19:15.141Z,0
2016-07-29T02:20:15.162Z,0
2016-07-29T02:21:15.943Z,0
2016-07-29T02:22:15.971Z,0
2016-07-29T02:23:15.990Z,0
2016-07-29T02:24:15.356Z,0
2016-07-29T02:25:16.104Z,0
2016-07-29T02:26:16.152Z,0
2016-07-29T02:27:15.504Z,0
2016-07-29T02:28:16.221Z,0
2016-07-29T02:29:16.292Z,0
2016-07-29T02:30:15.645Z,0
2016-07-29T02:31:16.389Z,0
2016-07-29T02:32:16.435Z,0
2016-07-29T02:33:16.733Z,0
2016-07-29T02:34:15.851Z,0
2016-07-29T02:35:15.903Z,0
2016-07-29T02:36:16.652Z,0
2016-07-29T02:37:15.960Z,0
2016-07-29T02:38:16.712Z,0
2016-07-29T02:39:16.775Z,0
2016-07-29T02:40:16.817Z,0
2016-07-29T02:41:16.883Z,0
2016-07-29T02:42:16.199Z,0
2016-07-29T02:43:16.932Z,0
2016-07-29T02:44:17.038Z,0
2016-07-29T02:45:17.266Z,0
2016-07-29T02:46:17.107Z,0
2016-07-29T02:47:16.461Z,0
2016-07-29T02:48:17.190Z,0
2016-07-29T02:49:17.232Z,0
2016-07-29T02:50:17.288Z,0
2016-07-29T02:51:16.642Z,0
2016-07-29T02:52:16.699Z,0
2016-07-29T02:53:16.731Z,0
2016-07-29T02:54:17.481Z,0
2016-07-29T02:55:17.544Z,0
2016-07-29T02:56:16.878Z,0
2016-07-29T02:57:16.917Z,0
2016-07-29T02:58:17.662Z,0
2016-07-29T02:59:17.008Z,0
2016-07-29T03:00:17.736Z,0
2016-07-29T03:01:17.796Z,0
2016-07-29T03:02:17.878Z,0
2016-07-29T03:03:17.892Z,0
2016-07-29T03:04:17.923Z,0
2016-07-29T03:05:17.980Z,0
2016-07-29T03:06:18.064Z,0
2016-07-29T03:07:18.082Z,0
2016-07-29T03:08:18.115Z,0
2016-07-29T03:09:18.174Z,0
2016-07-29T03:10:18.225Z,0
2016-07-29T03:11:18.243Z,0
2016-07-29T03:12:18.310Z,0
2016-07-29T03:13:18.365Z,0
2016-07-29T03:14:18.437Z,0
2016-07-29T03:15:18.431Z,0
2016-07-29T03:16:18.546Z,0
2016-07-29T03:17:17.852Z,0
2016-07-29T03:18:17.892Z,0
2016-07-29T03:19:18.648Z,0
2016-07-29T03:20:18.674Z,0
2016-07-29T03:21:18.751Z,0
2016-07-29T03:22:18.812Z,0
2016-07-29T03:23:18.832Z,4
2016-07-29T03:24:18.183Z,0
2016-07-29T03:25:18.956Z,4
2016-07-29T03:26:19.016Z,4
2016-07-29T03:27:19.007Z,8
2016-07-29T03:28:19.057Z,8
2016-07-29T03:29:19.099Z,8
2016-07-29T03:30:19.149Z,8
2016-07-29T03:31:19.213Z,4
2016-07-29T03:32:19.267Z,8
2016-07-29T03:33:19.613Z,8
2016-07-29T03:34:19.594Z,12
2016-07-29T03:35:19.421Z,12
2016-07-29T03:36:19.460Z,16
2016-07-29T03:37:19.507Z,24
2016-07-29T03:38:19.564Z,28
2016-07-29T03:39:19.595Z,28
2016-07-29T03:40:18.956Z,32
2016-07-29T03:41:19.699Z,36
2016-07-29T03:42:19.753Z,40
2016-07-29T03:43:19.790Z,40
2016-07-29T03:44:19.155Z,52
2016-07-29T03:45:19.891Z,52
2016-07-29T03:46:19.934Z,64
2016-07-29T03:47:20.192Z,72
2016-07-29T03:48:19.994Z,76
2016-07-29T03:49:19.356Z,80
2016-07-29T03:50:19.398Z,84
2016-07-29T03:51:20.140Z,92
2016-07-29T03:52:20.191Z,84
2016-07-29T03:53:19.559Z,92
2016-07-29T03:54:20.337Z,100
2016-07-29T03:55:20.369Z,116
2016-07-29T03:56:20.404Z,136
2016-07-29T03:57:19.034Z,136
2016-07-29T03:58:20.528Z,152
2016-07-29T03:59:19.853Z,164
2016-07-29T04:00:20.602Z,164
2016-07-29T04:01:20.647Z,180
2016-07-29T04:02:19.994Z,204
2016-07-29T04:03:20.732Z,236
2016-07-29T04:04:20.771Z,272
2016-07-29T04:05:20.149Z,340
2016-07-29T04:06:19.477Z,404
2016-07-29T04:07:20.232Z,372
2016-07-29T04:08:20.248Z,412
2016-07-29T04:09:21.019Z,456
2016-07-29T04:10:21.074Z,460
2016-07-29T04:11:21.097Z,460
2016-07-29T04:12:21.352Z,528
2016-07-29T04:13:21.200Z,612
2016-07-29T04:14:21.258Z,652
2016-07-29T04:15:21.309Z,664
2016-07-29T04:16:21.325Z,564
2016-07-29T04:17:20.705Z,704
2016-07-29T04:18:21.410Z,840
2016-07-29T04:19:20.784Z,876
2016-07-29T04:20:20.147Z,904
2016-07-29T04:21:21.604Z,1096
2016-07-29T04:22:21.599Z,1248
2016-07-29T04:23:21.652Z,1132
2016-07-29T04:24:21.036Z,1096
2016-07-29T04:25:21.057Z,1236
2016-07-29T04:26:21.826Z,1312
2016-07-29T04:27:21.852Z,1396
2016-07-29T04:28:21.905Z,1792
2016-07-29T04:29:21.238Z,2644
2016-07-29T04:30:22.007Z,2588
2016-07-29T04:31:22.040Z,2424
2016-07-29T04:32:22.106Z,2376
2016-07-29T04:33:22.108Z,2476
2016-07-29T04:34:22.162Z,2504
2016-07-29T04:35:21.516Z,2820
2016-07-29T04:36:21.546Z,2736
2016-07-29T04:37:22.311Z,2848
2016-07-29T04:38:22.343Z,2288
2016-07-29T04:39:22.426Z,2008
2016-07-29T04:40:21.738Z,2496
2016-07-29T04:41:22.495Z,3208
2016-07-29T04:42:22.545Z,3924
2016-07-29T04:43:21.902Z,4572
2016-07-29T04:44:22.621Z,5880
2016-07-29T04:45:22.662Z,6076
2016-07-29T04:46:22.732Z,5048
2016-07-29T04:47:22.077Z,5572
2016-07-29T04:48:22.149Z,4860
2016-07-29T04:49:22.853Z,4612
2016-07-29T04:50:22.920Z,5800
2016-07-29T04:51:22.981Z,5472
2016-07-29T04:52:23.025Z,5584
2016-07-29T04:53:23.026Z,5608
2016-07-29T04:54:23.138Z,3468
2016-07-29T04:55:22.429Z,3252
2016-07-29T04:56:23.190Z,3668
2016-07-29T04:57:23.231Z,3676
2016-07-29T04:58:23.271Z,4080
2016-07-29T04:59:23.333Z,5032
2016-07-29T05:00:22.697Z,5248
2016-07-29T05:01:23.401Z,9544
2016-07-29T05:02:23.468Z,6572
2016-07-29T05:03:23.515Z,6228
2016-07-29T05:04:23.559Z,4232
2016-07-29T05:05:22.938Z,4884
2016-07-29T05:06:23.649Z,4988
2016-07-29T05:07:22.987Z,4968
2016-07-29T05:08:23.746Z,4788
2016-07-29T05:09:23.804Z,3716
2016-07-29T05:10:23.844Z,3676
2016-07-29T05:11:23.905Z,5196
2016-07-29T05:12:23.219Z,5064
2016-07-29T05:13:24.004Z,3540
2016-07-29T05:14:23.314Z,3364
2016-07-29T05:15:24.043Z,3232
2016-07-29T05:16:24.135Z,3240
2016-07-29T05:17:24.185Z,3500
2016-07-29T05:18:23.039Z,3960
2016-07-29T05:19:23.575Z,3224
2016-07-29T05:20:23.599Z,2828
2016-07-29T05:21:24.368Z,2860
2016-07-29T05:22:24.408Z,2936
2016-07-29T05:23:23.749Z,3684
2016-07-29T05:24:24.493Z,3852
2016-07-29T05:25:24.513Z,2972
2016-07-29T05:26:24.590Z,3224
2016-07-29T05:27:24.655Z,4264
2016-07-29T05:28:24.674Z,5240
2016-07-29T05:29:24.724Z,5732
2016-07-29T05:30:24.061Z,6552
2016-07-29T05:31:24.830Z,5380
2016-07-29T05:32:24.889Z,7760
2016-07-29T05:33:24.627Z,6052
2016-07-29T05:34:24.960Z,6968
2016-07-29T05:35:25.006Z,6948
2016-07-29T05:36:25.070Z,7132
2016-07-29T05:37:25.096Z,8528
2016-07-29T05:38:25.171Z,6892
2016-07-29T05:39:24.487Z,5656
2016-07-29T05:40:25.239Z,6368
2016-07-29T05:41:24.601Z,5048
2016-07-29T05:42:25.359Z,5168
2016-07-29T05:43:25.378Z,4964
2016-07-29T05:44:25.397Z,5132
2016-07-29T05:45:24.778Z,6144
2016-07-29T05:46:25.493Z,8424
2016-07-29T05:47:25.577Z,7824
2016-07-29T05:48:24.711Z,8984
2016-07-29T05:49:25.673Z,10456
2016-07-29T05:50:25.695Z,11828
2016-07-29T05:51:25.049Z,16192
2016-07-29T05:52:25.799Z,12448
2016-07-29T05:53:25.844Z,12684
2016-07-29T05:54:25.894Z,12644
2016-07-29T05:55:25.957Z,18944
2016-07-29T05:56:26.003Z,17888
2016-07-29T05:57:26.028Z,21216
2016-07-29T05:58:26.081Z,18240
2016-07-29T05:59:26.138Z,19552
2016-07-29T06:00:24.770Z,19936
2016-07-29T06:01:26.189Z,19072
2016-07-29T06:02:25.572Z,20736
2016-07-29T06:04:26.356Z,21376
2016-07-29T06:05:26.399Z,20768
2016-07-29T06:06:25.736Z,17376
2016-07-29T06:07:26.476Z,19680
2016-07-29T06:08:26.511Z,23168
2016-07-29T06:09:25.898Z,22688
2016-07-29T06:10:26.640Z,24224
2016-07-29T06:11:26.674Z,28544
2016-07-29T06:12:26.707Z,21952
2016-07-29T06:13:26.089Z,20416
2016-07-29T06:14:26.841Z,19200
2016-07-29T06:15:26.885Z,18400
2016-07-29T06:16:25.497Z,18080
2016-07-29T06:17:26.284Z,17568
2016-07-29T06:18:26.296Z,17144
2016-07-29T06:19:27.076Z,17664
2016-07-29T06:20:27.099Z,16508
2016-07-29T06:21:27.170Z,16872
2016-07-29T06:22:27.223Z,15400
2016-07-29T06:23:27.244Z,14948
2016-07-29T06:24:27.305Z,14804
2016-07-29T06:25:27.335Z,13808
2016-07-29T06:26:27.354Z,13748
2016-07-29T06:27:26.721Z,13348
2016-07-29T06:28:27.478Z,12672
2016-07-29T06:29:26.830Z,12484
2016-07-29T06:30:27.581Z,16084
2016-07-29T06:31:27.616Z,20448
2016-07-29T06:32:27.631Z,18080
2016-07-29T06:33:27.752Z,13896
2016-07-29T06:34:27.091Z,12712
2016-07-29T06:35:27.090Z,15872
2016-07-29T06:36:27.826Z,19168
2016-07-29T06:37:27.204Z,15864
2016-07-29T06:38:27.923Z,15196
2016-07-29T06:39:27.292Z,16028
2016-07-29T06:40:27.311Z,16660
2016-07-29T06:41:27.395Z,16740
2016-07-29T06:42:28.109Z,14920
2016-07-29T06:43:28.176Z,14644
2016-07-29T06:44:28.198Z,15732
2016-07-29T06:45:28.267Z,16056
2016-07-29T06:46:28.336Z,16688
2016-07-29T06:47:28.358Z,17600
2016-07-29T06:50:28.491Z,18048
2016-07-29T06:51:28.579Z,21440
2016-07-29T06:52:28.594Z,22976
2016-07-29T06:53:27.963Z,21376
2016-07-29T06:54:28.668Z,19392
2016-07-29T06:55:27.337Z,20704
2016-07-29T06:56:28.778Z,22016
2016-07-29T06:57:28.129Z,24224
2016-07-29T06:58:28.906Z,28224
2016-07-29T06:59:28.950Z,28384
2016-07-29T07:00:28.982Z,32416
2016-07-29T07:01:28.304Z,22656
2016-07-29T07:02:28.342Z,26048
2016-07-29T07:04:29.191Z,27680
2016-07-29T07:05:29.223Z,29408
2016-07-29T07:06:28.553Z,39680
2016-07-29T07:07:28.618Z,36704
2016-07-29T07:08:29.316Z,32960
2016-07-29T07:09:29.391Z,27680
2016-07-29T07:10:28.761Z,22112
2016-07-29T07:11:29.458Z,21696
2016-07-29T07:12:29.545Z,21184
2016-07-29T07:13:29.597Z,24192
2016-07-29T07:14:28.952Z,24992
2016-07-29T07:15:29.697Z,24224
2016-07-29T07:16:29.700Z,27712
2016-07-29T07:17:29.772Z,30560
2016-07-29T07:19:29.855Z,30080
2016-07-29T07:20:29.222Z,29440
2016-07-29T07:21:30.007Z,30912
2016-07-29T07:22:29.983Z,29184
2016-07-29T07:23:30.067Z,33664
2016-07-29T07:24:30.076Z,30336
2016-07-29T07:25:29.441Z,30784
2016-07-29T07:26:29.504Z,30048
2016-07-29T07:27:29.539Z,33536
2016-07-29T07:28:29.604Z,30304
2016-07-29T07:29:30.327Z,25824
2016-07-29T07:30:29.662Z,29440
2016-07-29T07:31:30.424Z,25376
2016-07-29T07:32:30.498Z,27968
2016-07-29T07:34:29.867Z,29312
2016-07-29T07:35:30.638Z,31104
2016-07-29T07:36:29.951Z,34272
2016-07-29T07:37:29.993Z,30368
2016-07-29T07:38:30.756Z,24608
2016-07-29T07:39:30.806Z,35104
2016-07-29T07:40:29.432Z,35744
2016-07-29T07:41:30.902Z,35424
2016-07-29T07:42:30.222Z,24448
2016-07-29T07:43:30.989Z,16920
2016-07-29T07:44:31.041Z,16328
2016-07-29T07:45:31.113Z,25824
2016-07-29T07:46:30.451Z,28704
2016-07-29T07:47:31.156Z,16928
2016-07-29T07:49:31.251Z,38976
2016-07-29T07:50:31.321Z,87520
2016-07-29T07:51:31.394Z,26912
2016-07-29T07:52:31.431Z,55616
2016-07-29T07:53:31.464Z,34368
2016-07-29T07:54:31.524Z,70816
2016-07-29T07:55:31.535Z,44960
2016-07-29T07:56:31.602Z,45024
2016-07-29T07:57:30.958Z,33760
2016-07-29T07:58:31.699Z,51968
2016-07-29T07:59:31.048Z,34144
2016-07-29T08:00:31.107Z,25088
2016-07-29T08:01:31.828Z,34432
2016-07-29T08:02:31.174Z,21984
2016-07-29T08:04:31.953Z,66240
2016-07-29T08:05:32.049Z,75968
2016-07-29T08:06:32.105Z,84224
2016-07-29T08:07:32.120Z,87264
2016-07-29T08:08:31.458Z,59296
2016-07-29T08:09:31.516Z,68320
2016-07-29T08:10:31.560Z,41984
2016-07-29T08:11:31.618Z,34304
2016-07-29T08:12:31.677Z,34272
2016-07-29T08:13:31.690Z,30816
2016-07-29T08:14:31.750Z,40704
2016-07-29T08:15:32.495Z,40096
2016-07-29T08:16:32.549Z,25376
2016-07-29T08:17:32.569Z,24928
2016-07-29T08:19:32.666Z,24896
2016-07-29T08:20:32.738Z,33440
2016-07-29T08:21:32.104Z,28064
2016-07-29T08:22:32.838Z,20576
2016-07-29T08:23:32.896Z,18944
2016-07-29T08:24:32.906Z,21568
2016-07-29T08:25:32.969Z,20256
2016-07-29T08:26:33.047Z,24160
2016-07-29T08:27:33.062Z,20256
2016-07-29T08:28:33.111Z,15644
2016-07-29T08:29:32.453Z,19040
2016-07-29T08:30:33.252Z,13444
2016-07-29T08:31:32.553Z,16136
2016-07-29T08:32:32.596Z,23744
2016-07-29T08:34:33.368Z,35744
2016-07-29T08:35:33.463Z,28288
2016-07-29T08:36:33.505Z,20256
2016-07-29T08:37:32.848Z,22336
2016-07-29T08:38:32.874Z,35840
2016-07-29T08:39:33.616Z,22048
2016-07-29T08:40:33.667Z,22176
2016-07-29T08:41:33.720Z,16108
2016-07-29T08:42:33.755Z,18624
2016-07-29T08:43:33.811Z,17536
2016-07-29T08:44:33.885Z,15608
2016-07-29T08:45:33.931Z,15876
2016-07-29T08:46:33.956Z,13784
2016-07-29T08:47:33.287Z,16536
2016-07-29T08:48:33.329Z,20480
2016-07-29T08:49:34.148Z,34336
2016-07-29T08:50:34.151Z,34912
2016-07-29T08:51:33.515Z,41664
2016-07-29T08:52:34.237Z,44320
2016-07-29T08:53:33.597Z,38112
2016-07-29T08:54:34.319Z,54464
2016-07-29T08:55:34.386Z,73088
2016-07-29T08:56:34.435Z,54336
2016-07-29T08:57:34.504Z,88640
2016-07-29T08:58:34.529Z,47136
2016-07-29T08:59:34.553Z,70752
2016-07-29T09:00:34.627Z,60288
2016-07-29T09:01:33.979Z,50272
2016-07-29T09:02:33.298Z,44480
2016-07-29T09:03:34.759Z,51648
2016-07-29T09:04:34.108Z,56576
2016-07-29T09:05:34.156Z,52256
2016-07-29T09:06:34.231Z,51968
2016-07-29T09:07:34.964Z,49216
2016-07-29T09:08:35.022Z,58688
2016-07-29T09:09:35.068Z,43936
2016-07-29T09:10:35.087Z,35776
2016-07-29T09:11:35.169Z,32384
2016-07-29T09:13:35.257Z,30272
2016-07-29T09:14:34.599Z,26080
2016-07-29T09:15:33.938Z,36032
2016-07-29T09:16:35.377Z,53248
2016-07-29T09:17:35.426Z,26080
2016-07-29T09:18:35.440Z,24032
2016-07-29T09:19:35.525Z,22304
2016-07-29T09:20:34.852Z,20160
2016-07-29T09:21:35.586Z,28512
2016-07-29T09:22:34.954Z,114912
2016-07-29T09:23:34.320Z,60928
2016-07-29T09:24:35.755Z,110784
2016-07-29T09:25:35.108Z,52768
2016-07-29T09:26:35.881Z,75616
2016-07-29T09:27:35.189Z,73344
2016-07-29T09:28:35.236Z,51424
2016-07-29T09:29:35.309Z,56096
2016-07-29T09:30:36.028Z,48320
2016-07-29T09:31:36.081Z,52064
2016-07-29T09:32:35.424Z,56224
2016-07-29T09:33:35.506Z,153344
